Wylie's Hourly Summary for Saturday, April 15, 2017
Hour Temp
(f)
RH
(%)
Solar Rad.
(MJ/m2)
Rainfall
(in)
Wind
(mph)
4/15/2017 12:00 AM 69 62 0 0 5.9
4/15/2017 1:00 AM 68 63 0 0 6.89
4/15/2017 2:00 AM 68 68 0 0 6.14
4/15/2017 3:00 AM 66 75 0 0 4.83
4/15/2017 4:00 AM 65 79 0 0 5.19
4/15/2017 5:00 AM 64 83 0 0 3.37
4/15/2017 6:00 AM 63 87 0 0 2.79
4/15/2017 7:00 AM 64 96 0 0 4.46
4/15/2017 8:00 AM 64 92 0.09 0 6.07
4/15/2017 9:00 AM 65 87 0.36 0 5.63
4/15/2017 10:00 AM 67 78 0.85 0 8.05
4/15/2017 11:00 AM 69 68 1.73 0 9.09
4/15/2017 12:00 PM 72 62 2.29 0 8.32
4/15/2017 1:00 PM 75 58 2.91 0 8.3
4/15/2017 2:00 PM 76 54 2.78 0 8.59
4/15/2017 3:00 PM 77 53 2.18 0 8.96
4/15/2017 4:00 PM 77 54 1.51 0 8.36
4/15/2017 5:00 PM 77 54 1.58 0 9.08
4/15/2017 6:00 PM 77 55 0.85 0 8.46
4/15/2017 7:00 PM 76 56 0.38 0 8.28
4/15/2017 8:00 PM 75 60 0.14 0 6.83
4/15/2017 9:00 PM 74 62 0 0 6.19
4/15/2017 10:00 PM 72 66 0 0 4.72
4/15/2017 11:00 PM 71 68 0 0 4.94
Data Summary 70 68 17.65 0.00 6.64